Home > Products > Valid Products > TAF

000
FTUS44 KSHV 270500
TAFTXK
TAF
KTXK 270520Z 2706/2806 VRB04KT P6SM SKC
      TEMPO 2706/2709 22006KT=



000
FTUS44 KSHV 270500
TAFMLU
TAF
KMLU 270520Z 2706/2806 VRB04KT P6SM SKC
      TEMPO 2718/2722 01007KT=



000
FTUS44 KSHV 270500
TAFSHV
TAF
KSHV 270520Z 2706/2806 VRB04KT P6SM SKC=



000
FTUS44 KSHV 270500
TAFLFK
TAF
KLFK 270520Z 2706/2806 VRB03KT P6SM SKC=



000
FTUS44 KSHV 270500
TAFELD
TAF
KELD 270520Z 2706/2806 VRB03KT P6SM SKC
      TEMPO 2718/2722 01006KT=



000
FTUS44 KSHV 270500
TAFTYR
TAF
KTYR 270520Z 2706/2806 VRB04KT P6SM SKC
      TEMPO 2706/2710 22008KT=



000
FTUS44 KSHV 270500
TAFGGG
TAF
KGGG 270520Z 2706/2806 VRB04KT P6SM SKC
      TEMPO 2706/2710 22006KT=



000
FTUS44 KSHV 262300
TAFLFK
TAF
KLFK 262321Z 2700/2724 VRB03KT P6SM SKC
      TEMPO 2700/2702 25006KT=



000
FTUS44 KSHV 262300
TAFTYR
TAF
KTYR 262321Z 2700/2724 VRB04KT P6SM SKC
      TEMPO 2700/2702 24008KT=



000
FTUS44 KSHV 262300
TAFGGG
TAF
KGGG 262321Z 2700/2724 VRB04KT P6SM SKC
      TEMPO 2700/2702 24008KT=



000
FTUS44 KSHV 262300
TAFTXK
TAF
KTXK 262321Z 2700/2724 VRB04KT P6SM SKC
      TEMPO 2700/2703 23008KT=



000
FTUS44 KSHV 262300
TAFMLU
TAF
KMLU 262321Z 2700/2724 VRB04KT P6SM SKC
      TEMPO 2718/2722 01007KT=



000
FTUS44 KSHV 262300
TAFELD
TAF
KELD 262321Z 2700/2724 VRB03KT P6SM SKC
      TEMPO 2718/2722 01006KT=



000
FTUS44 KSHV 262300
TAFSHV
TAF
KSHV 262321Z 2700/2724 VRB04KT P6SM SKC
      TEMPO 2700/2702 24008KT=



000
FTUS44 KSHV 261700
TAFTYR
TAF
KTYR 261737Z 2618/2718 31003KT P6SM SKC
     FM262100 22007KT P6SM SKC
     FM270800 VRB04KT P6SM SKC=



000
FTUS44 KSHV 261700
TAFSHV
TAF
KSHV 261737Z 2618/2718 35006KT P6SM SKC
     FM262100 25007KT P6SM SKC
     FM270000 VRB04KT P6SM SKC
     FM271500 35006KT P6SM SKC=



000
FTUS44 KSHV 261700
TAFMLU
TAF
KMLU 261737Z 2618/2718 31008KT P6SM SKC
     FM262100 28007KT P6SM SKC
     FM270000 VRB04KT P6SM SKC
     FM271500 01006KT P6SM SKC=



000
FTUS44 KSHV 261700
TAFLFK
TAF
KLFK 261737Z 2618/2718 VRB06KT P6SM SKC
     FM270000 VRB03KT P6SM SKC=



000
FTUS44 KSHV 261700
TAFTXK
TAF
KTXK 261737Z 2618/2718 30004KT P6SM SKC
     FM261900 24008KT P6SM SKC
     FM270600 VRB04KT P6SM SKC=



000
FTUS44 KSHV 261700
TAFGGG
TAF
KGGG 261737Z 2618/2718 VRB05KT P6SM SKC
     FM262100 23007KT P6SM SKC
     FM270600 VRB04KT P6SM SKC=



000
FTUS44 KSHV 261700
TAFELD
TAF
KELD 261737Z 2618/2718 28007KT P6SM SKC
     FM262100 23006KT P6SM SKC
     FM271000 01005KT P6SM SKC=



000
FTUS44 KSHV 261100
TAFELD
TAF
KELD 261135Z 2612/2712 30007KT P6SM SKC
     FM262100 26005KT P6SM SKC
     FM271000 33004KT P6SM SKC=



000
FTUS44 KSHV 261100
TAFSHV
TAF
KSHV 261135Z 2612/2712 30007KT P6SM SKC
     FM262000 25007KT P6SM SKC
     FM270000 VRB04KT P6SM SKC=



000
FTUS44 KSHV 261100
TAFLFK
TAF
KLFK 261135Z 2612/2712 VRB04KT P6SM FEW250
     FM261500 34005KT P6SM SKC
     FM262200 27005KT P6SM SKC
     FM270000 VRB04KT P6SM SKC=



000
FTUS44 KSHV 261100
TAFGGG
TAF
KGGG 261135Z 2612/2712 30005KT P6SM SKC
     FM261800 26010KT P6SM SKC
     FM270000 24004KT P6SM SKC=



000
FTUS44 KSHV 261100
TAFTXK
TAF
KTXK 261135Z 2612/2712 32008KT P6SM SKC
     FM261900 25008KT P6SM SKC
     FM270000 25004KT P6SM SKC
     FM271000 30004KT P6SM SKC=



000
FTUS44 KSHV 261100
TAFMLU
TAF
KMLU 261135Z 2612/2712 32008KT P6SM FEW035
     FM262100 28007KT P6SM SKC
     FM270000 VRB04KT P6SM SKC=



000
FTUS44 KSHV 261100
TAFTYR
TAF
KTYR 261135Z 2612/2712 32005KT P6SM SKC
     FM261800 25010KT P6SM SKC
     FM270000 25004KT P6SM SKC=



000
FTUS44 KSHV 260500
TAFSHV
TAF
KSHV 260528Z 2606/2706 31007KT P6SM SKC
     FM261800 27008KT P6SM SKC
     FM270000 VRB04KT P6SM SKC=



000
FTUS44 KSHV 260500
TAFLFK
TAF
KLFK 260528Z 2606/2706 29005KT P6SM SKC
     FM270000 VRB04KT P6SM SKC=



000
FTUS44 KSHV 260500
TAFTYR
TAF
KTYR 260528Z 2606/2706 31005KT P6SM SKC
     FM261800 25010KT P6SM SKC
     FM270000 VRB04KT P6SM SKC=



000
FTUS44 KSHV 260500
TAFGGG
TAF
KGGG 260528Z 2606/2706 32008KT P6SM SKC
     FM261800 26010KT P6SM SKC
     FM270000 VRB04KT P6SM SKC=



000
FTUS44 KSHV 260500
TAFTXK
TAF
KTXK 260528Z 2606/2706 32007KT P6SM SKC
     FM261800 25008KT P6SM SKC
     FM270000 VRB04KT P6SM SKC=



000
FTUS44 KSHV 260500
TAFMLU
TAF
KMLU 260528Z 2606/2706 32010KT P6SM SKC
     FM261300 34008KT P6SM SKC
     FM270000 VRB04KT P6SM SKC=



000
FTUS44 KSHV 260500
TAFELD
TAF
KELD 260528Z 2606/2706 30007KT P6SM SKC
     FM270000 VRB04KT P6SM SKC=



000
FTUS44 KSHV 252300
TAFSHV
TAF
KSHV 252326Z 2600/2624 31012KT P6SM SKC
      TEMPO 2600/2602 29020G35KT SCT060
     FM260700 32006KT P6SM SKC
     FM261800 27008KT P6SM SKC=



000
FTUS44 KSHV 252300
TAFTYR
TAF
KTYR 252326Z 2600/2624 31008KT P6SM SKC
      TEMPO 2600/2602 29014G22KT
     FM260700 29005KT P6SM SKC
     FM261800 25010KT P6SM SKC=



000
FTUS44 KSHV 252300
TAFMLU
TAF
KMLU 252326Z 2600/2624 30012KT P6SM SKC
      TEMPO 2600/2603 28015G25KT BKN080
     FM260700 34008KT P6SM SKC
     FM261800 28008KT P6SM SKC=



000
FTUS44 KSHV 252300
TAFLFK
TAF
KLFK 252326Z 2600/2624 30007KT P6SM SKC
      TEMPO 2600/2602 28012G18KT
     FM260700 27005KT P6SM SKC=



000
FTUS44 KSHV 252300
TAFELD
TAF
KELD 252326Z 2600/2624 30007KT P6SM SKC
      TEMPO 2600/2604 28012G20KT BKN070
     FM260700 28005KT P6SM SKC=



000
FTUS44 KSHV 252300
TAFGGG
TAF
KGGG 252326Z 2600/2624 32010KT P6SM SKC
      TEMPO 2600/2602 30016G28KT
     FM260700 30005KT P6SM SKC
     FM261800 26010KT P6SM SKC=



000
FTUS44 KSHV 252300
TAFTXK
TAF
KTXK 252326Z 2600/2624 32010KT P6SM SKC
      TEMPO 2600/2602 30015G25KT BKN070
     FM260700 30005KT P6SM SKC
     FM261800 25008KT P6SM SKC=



000
FTUS44 KSHV 251700
TAFTYR
TAF
KTYR 251730Z 2518/2618 33018G26KT P6SM SKC
     FM260000 31010KT P6SM FEW045
     FM260500 31006KT P6SM SKC=



000
FTUS44 KSHV 251700
TAFSHV
TAF
KSHV 251730Z 2518/2618 31016G25KT P6SM FEW140 FEW290
     FM252100 30016G27KT P6SM FEW045
     FM260000 30010KT P6SM SCT045
     FM260500 30007KT P6SM SKC=



000
FTUS44 KSHV 251700
TAFGGG
TAF
KGGG 251730Z 2518/2618 31013G26KT P6SM SKC
     FM260000 30010KT P6SM SCT045
     FM260500 31007KT P6SM SKC=



000
FTUS44 KSHV 251700
TAFLFK
TAF
KLFK 251730Z 2518/2618 31009KT P6SM SKC
     FM260000 31005KT P6SM SKC=



000
FTUS44 KSHV 251700
TAFMLU
TAF
KMLU 251730Z 2518/2618 26013KT P6SM SKC
     FM252100 29014G22KT P6SM SCT045
     FM260000 30011KT P6SM BKN045
     FM260700 32006KT P6SM SKC=



000
FTUS44 KSHV 251700
TAFTXK
TAF
KTXK 251730Z 2518/2618 31016G22KT P6SM FEW050
     FM252100 30014G25KT P6SM BKN045
     FM260000 30010KT P6SM BKN045
     FM260400 31008KT P6SM FEW040
     FM261500 28005KT P6SM SKC=



000
FTUS44 KSHV 251700
TAFELD
TAF
KELD 251730Z 2518/2618 27011G16KT P6SM SKC
     FM252100 30013G25KT P6SM BKN045
     FM260000 31008KT P6SM BKN045
     FM260700 32006KT P6SM FEW250=



000
FTUS44 KSHV 251600 AAA
TAFLFK
TAF AMD
KLFK 251620Z 2516/2612 29011G18KT P6SM SKC
     FM251700 30010G23KT P6SM SCT250
     FM260000 31005KT P6SM SKC=



000
FTUS44 KSHV 251600 AAA
TAFGGG
TAF AMD
KGGG 251618Z 2516/2612 31015G23KT P6SM SKC
     FM251700 30017G27KT P6SM SCT250
     FM260000 30010KT P6SM SCT045
     FM260500 31007KT P6SM SKC=



000
FTUS44 KSHV 251600 AAA
TAFTYR
TAF AMD
KTYR 251618Z 2516/2612 31008G18KT P6SM SKC
     FM251700 31014G25KT P6SM SCT250
     FM260000 31010KT P6SM FEW045
     FM260500 31006KT P6SM SKC=



000
FTUS44 KSHV 251600 AAA
TAFSHV
TAF AMD
KSHV 251617Z 2516/2612 29012G20KT P6SM FEW140
     FM251800 29014G25KT P6SM SCT250
     FM252100 30016G27KT P6SM SCT045
     FM260000 30010KT P6SM SCT045
     FM260500 30007KT P6SM SKC=



000
FTUS44 KSHV 251100
TAFELD
TAF
KELD 251137Z 2512/2612 21004KT P6SM FEW250
     FM251500 24009KT P6SM SCT110 SCT250
     FM251700 28013G23KT P6SM SCT120 SCT250
     FM252100 29013G23KT P6SM BKN045
     FM260000 31008KT P6SM BKN045
     FM260700 32006KT P6SM FEW250=



000
FTUS44 KSHV 251100
TAFSHV
TAF
KSHV 251137Z 2512/2612 18003KT P6SM SCT250
     FM251500 27009KT P6SM SCT250
     FM251800 29014G22KT P6SM SCT250
     FM252100 30014G22KT P6SM SCT045
     FM260000 30010KT P6SM SCT045
     FM260500 30007KT P6SM SKC=



000
FTUS44 KSHV 251100
TAFTYR
TAF
KTYR 251137Z 2512/2612 21010KT P6SM FEW250
     FM251500 29010KT P6SM SCT250
     FM251700 31014G24KT P6SM SCT250
     FM260000 31010KT P6SM FEW045
     FM260500 31006KT P6SM SKC=



000
FTUS44 KSHV 251100
TAFMLU
TAF
KMLU 251137Z 2512/2612 21005KT P6SM FEW250
     FM251500 23008KT P6SM FEW250
     FM251700 27014G22KT P6SM SCT250
     FM252200 29014G22KT P6SM SCT045
     FM260000 30011KT P6SM BKN045
     FM260700 32008KT P6SM FEW250=



000
FTUS44 KSHV 251100
TAFGGG
TAF
KGGG 251137Z 2512/2612 21006KT P6SM FEW250
     FM251500 28009KT P6SM SCT250
     FM251700 30014G25KT P6SM SCT250
     FM260000 30010KT P6SM SCT045
     FM260500 31007KT P6SM SKC=



000
FTUS44 KSHV 251100
TAFTXK
TAF
KTXK 251137Z 2512/2612 21008KT P6SM SCT250
     FM251500 27010KT P6SM SCT120 SCT250
     FM251700 29014G25KT P6SM SCT120 SCT250
     FM252100 30014G25KT P6SM BKN045
     FM260000 30010KT P6SM BKN045
     FM260400 31008KT P6SM FEW250=



000
FTUS44 KSHV 251100
TAFLFK
TAF
KLFK 251137Z 2512/2612 21004KT P6SM SKC
     FM251600 27007KT P6SM FEW250
     FM251900 30010G17KT P6SM SCT250
     FM260000 31005KT P6SM SKC=



000
FTUS44 KSHV 250500
TAFLFK
TAF
KLFK 250526Z 2506/2606 23003KT P6SM BKN300
     FM251600 27007KT P6SM BKN300
     FM251900 30010G17KT P6SM SCT300
     FM260000 31005KT P6SM SKC=



000
FTUS44 KSHV 250500
TAFMLU
TAF
KMLU 250526Z 2506/2606 22004KT P6SM SCT300
     FM251500 24008KT P6SM SCT300
     FM251700 27013G22KT P6SM FEW300
     FM252200 29013G22KT P6SM SCT045
     FM260000 30012KT P6SM BKN045=



000
FTUS44 KSHV 250500
TAFSHV
TAF
KSHV 250526Z 2506/2606 24004KT P6SM SCT300
     FM251500 27009KT P6SM SCT300
     FM251800 29014G22KT P6SM FEW300
     FM252200 30013G22KT P6SM SCT045
     FM260000 30010KT P6SM BKN045=



000
FTUS44 KSHV 250500
TAFTYR
TAF
KTYR 250526Z 2506/2606 22006KT P6SM BKN300
     FM251500 29010KT P6SM SCT300
     FM251700 31014G24KT P6SM FEW300
     FM260000 31008KT P6SM FEW045=



000
FTUS44 KSHV 250500
TAFTXK
TAF
KTXK 250526Z 2506/2606 22006KT P6SM SCT250
     FM251500 27010KT P6SM SCT250
     FM251700 29014G24KT P6SM FEW250
     FM252100 30014G24KT P6SM BKN045
     FM260000 30010KT P6SM BKN045=



000
FTUS44 KSHV 250500
TAFGGG
TAF
KGGG 250526Z 2506/2606 22006KT P6SM BKN300
     FM251500 28009KT P6SM SCT300
     FM251700 30014G24KT P6SM FEW300
     FM260000 30008KT P6SM SCT045=



000
FTUS44 KSHV 250500
TAFELD
TAF
KELD 250526Z 2506/2606 22003KT P6SM SCT250
     FM251500 24009KT P6SM SCT110 SCT250
     FM251700 28013G23KT P6SM FEW250
     FM252100 28013G23KT P6SM BKN045
     FM260000 29008KT P6SM BKN045=



000
FTUS44 KSHV 242300
TAFSHV
TAF
KSHV 242332Z 2500/2524 25004KT P6SM BKN300
     FM251500 27009KT P6SM BKN250
     FM251800 29014G22KT P6SM FEW250=



000
FTUS44 KSHV 242300
TAFGGG
TAF
KGGG 242332Z 2500/2524 25005KT P6SM BKN300
     FM251500 29010KT P6SM BKN250
     FM251700 30014G24KT P6SM SCT250=



000
FTUS44 KSHV 242300
TAFLFK
TAF
KLFK 242332Z 2500/2524 23003KT P6SM BKN300
     FM251600 26007KT P6SM BKN250
     FM251900 30010G17KT P6SM BKN250=



000
FTUS44 KSHV 242300
TAFTXK
TAF
KTXK 242332Z 2500/2524 24006KT P6SM SCT300
     FM251500 27010KT P6SM SCT250
     FM251700 29014G23KT P6SM FEW250
     FM252100 29014G23KT P6SM BKN045=



000
FTUS44 KSHV 242300
TAFMLU
TAF
KMLU 242332Z 2500/2524 23004KT P6SM BKN300
     FM251500 24009KT P6SM BKN250
     FM251700 26013G22KT P6SM FEW250
     FM252100 29013G22KT P6SM SCT045=



000
FTUS44 KSHV 242300
TAFELD
TAF
KELD 242332Z 2500/2524 24003KT P6SM BKN300
     FM251500 24009KT P6SM SCT130 SCT250
     FM251700 28012G21KT P6SM FEW250
     FM252100 28012G21KT P6SM BKN045=



000
FTUS44 KSHV 242300
TAFTYR
TAF
KTYR 242332Z 2500/2524 25005KT P6SM BKN300
     FM251500 29010KT P6SM BKN250
     FM251700 31014G24KT P6SM SCT250=



000
FTUS44 KSHV 242100 AAA
TAFELD
TAF AMD
KELD 242122Z 2421/2518 23010KT P6SM FEW300
     FM250000 23003KT P6SM SKC
     FM251300 22007KT P6SM SCT100
     FM251500 25011G17KT P6SM SCT045 SCT100
     FM251700 27014G21KT P6SM BKN045=



000
FTUS44 KSHV 242100 AAA
TAFGGG
TAF AMD
KGGG 242117Z 2421/2518 27008KT P6SM BKN300
     FM250000 23004KT P6SM OVC300
     FM251000 23008KT P6SM FEW045 SCT100
     FM251600 29010G19KT P6SM SCT045=



000
FTUS44 KSHV 242100 AAA
TAFLFK
TAF AMD
KLFK 242115Z 2421/2518 23008KT P6SM BKN300
     FM250000 24003KT P6SM OVC300
     FM251000 25002KT P6SM SKC
     FM251700 30007G14KT P6SM SKC=



000
FTUS44 KSHV 242100 AAA
TAFTYR
TAF AMD
KTYR 242112Z 2421/2518 24007KT P6SM BKN300
     FM250000 25005KT P6SM SCT300
     FM250900 22007KT P6SM FEW250
     FM251000 23009KT P6SM FEW045 SCT100
     FM251600 28012G19KT P6SM SKC=



000
FTUS44 KSHV 242100 AAA
TAFTXK
TAF AMD
KTXK 242110Z 2421/2518 27011KT P6SM FEW300
     FM250000 24004KT P6SM SKC
     FM250900 23007KT P6SM FEW100
     FM251200 25010KT P6SM FEW045
     FM251600 28013G19KT P6SM SCT045=



000
FTUS44 KSHV 242100 AAA
TAFMLU
TAF AMD
KMLU 242107Z 2421/2518 23009KT P6SM FEW300
     FM250000 23004KT P6SM SCT300
     FM251500 24010KT P6SM FEW100 SCT250
     FM251700 26013G20KT P6SM SCT045=



000
FTUS44 KSHV 242100 AAA
TAFSHV
TAF AMD
KSHV 242105Z 2421/2518 23009KT P6SM SCT300
     FM250000 24004KT P6SM SCT300
     FM250500 25004KT P6SM SKC
     FM251500 27010KT P6SM FEW250
     FM251700 29013G20KT P6SM FEW250=



000
FTUS44 KSHV 241700 RRA
TAFLFK
TAF
KLFK 241741Z 2418/2518 24004KT P6SM SKC
     FM250000 25003KT P6SM OVC250
     FM251000 25002KT P6SM SKC
     FM251700 30007G14KT P6SM SKC=



000
FTUS44 KSHV 241700 RRA
TAFTXK
TAF
KTXK 241741Z 2418/2518 23006KT P6SM SKC
     FM250000 24004KT P6SM SKC
     FM250900 23007KT P6SM SKC=



000
FTUS44 KSHV 241700 RRA
TAFGGG
TAF
KGGG 241741Z 2418/2518 28008KT P6SM SKC
     FM250000 23004KT P6SM SKC
     FM251000 21007KT P6SM SKC
     FM251600 29010G16KT P6SM SKC=



000
FTUS44 KSHV 241700 RRA
TAFTYR
TAF
KTYR 241741Z 2418/2518 VRB05KT P6SM SKC
     FM250000 25005KT P6SM SKC
     FM250900 22006KT P6SM SKC
     FM251000 23009KT P6SM SKC
     FM251600 28012G18KT P6SM SKC=



000
FTUS44 KSHV 241700 RRA
TAFELD
TAF
KELD 241741Z 2418/2518 23009KT P6SM SKC
     FM250000 24003KT P6SM SKC
     FM251500 25011G17KT P6SM SKC=



000
FTUS44 KSHV 241700 RRA
TAFMLU
TAF
KMLU 241741Z 2418/2518 26007KT P6SM SKC
     FM250000 23004KT P6SM SCT250
     FM251500 24010KT P6SM SKC=



000
FTUS44 KSHV 241700 RRA
TAFSHV
TAF
KSHV 241741Z 2418/2518 26007KT P6SM FEW300
     FM250000 24004KT P6SM SCT300
     FM250500 25004KT P6SM SKC
     FM251500 27010KT P6SM FEW250=



000
FTUS44 KSHV 241600 AAA
TAFMLU
TAF AMD
KMLU 241629Z 2416/2512 25008KT P6SM SKC
     FM250000 23004KT P6SM SCT250=



000
FTUS44 KSHV 241500 AAA
TAFSHV
TAF AMD
KSHV 241526Z 2415/2512 26007KT P6SM FEW300
     FM241800 26008KT P6SM SCT300
     FM250000 24004KT P6SM SCT300
     FM250500 25004KT P6SM SKC=



000
FTUS44 KSHV 241500 AAD
TAFLFK
TAF AMD
KLFK 241521Z 2415/2512 22004KT P6SM BKN250
     FM241600 24006KT P6SM OVC250
     FM250000 25003KT P6SM OVC250
     FM251000 25002KT P6SM SKC=



000
FTUS44 KSHV 241300 AAC
TAFLFK
TAF AMD
KLFK 241359Z 2414/2512 00000KT P6SM SKC
      TEMPO 2414/2416 4SM BR
     FM241600 24006KT P6SM SKC
     FM250000 25003KT P6SM SKC=



000
FTUS44 KSHV 241300 AAB
TAFLFK
TAF AMD
KLFK 241351Z 2414/2512 00000KT P6SM SKC
     FM241500 26006KT P6SM SKC
     FM250000 25003KT P6SM SKC=



000
FTUS44 KSHV 241200 AAA
TAFLFK
TAF AMD
KLFK 241219Z 2412/2512 00000KT P6SM SKC
      TEMPO 2412/2415 2SM BR
     FM241500 26006KT P6SM SKC
     FM250000 25003KT P6SM SKC=



000
FTUS44 KSHV 241100
TAFMLU
TAF
KMLU 241120Z 2412/2512 27005KT P6SM SKC
     FM241600 26008KT P6SM SKC
     FM250000 23004KT P6SM SKC=



000
FTUS44 KSHV 241100
TAFGGG
TAF
KGGG 241120Z 2412/2512 24005KT P6SM SKC
     FM241800 27007KT P6SM SKC
     FM250000 23004KT P6SM SKC=



000
FTUS44 KSHV 241100
TAFTXK
TAF
KTXK 241120Z 2412/2512 23005KT P6SM SKC
     FM241600 27008KT P6SM SKC
     FM250000 24004KT P6SM SKC
     FM250900 23007KT P6SM SKC=



000
FTUS44 KSHV 241100
TAFELD
TAF
KELD 241120Z 2412/2512 00000KT P6SM SKC
     FM241600 25007KT P6SM SKC
     FM250000 24003KT P6SM SKC=



000
FTUS44 KSHV 241100
TAFLFK
TAF
KLFK 241120Z 2412/2512 00000KT P6SM SKC
     FM241500 26006KT P6SM SKC
     FM250000 25003KT P6SM SKC=



000
FTUS44 KSHV 241100
TAFSHV
TAF
KSHV 241120Z 2412/2512 00000KT P6SM SKC
     FM241800 26007KT P6SM SKC
     FM250000 24004KT P6SM SKC=



000
FTUS44 KSHV 241100
TAFTYR
TAF
KTYR 241120Z 2412/2512 26006KT P6SM SKC
     FM241800 27007KT P6SM SKC
     FM250000 25005KT P6SM SKC
     FM250900 22006KT P6SM SKC=



    US Dept of Commerce
    National Oceanic and Atmospheric Administration
    National Weather Service
    1325 East West Highway
    Silver Spring, MD 20910
    Page Author: NWS Internet Services Team
Disclaimer
Information Quality
Credits
Glossary
Privacy Policy
Freedom of Information Act (FOIA)
About Us
Career Opportunities